Time;durP1;ratioP1;P1;durP2;ratioP2;P2;SDS_P1;SDS_P2;PMS_P1;PMS_P2;Temp;Humidity;BMP_temperature;BMP_pressure;BME280_temperature;BME280_humidity;BME280_pressure;Samples;Min_cycle;Max_cycle;Signal;HPM_P1;HPM_P2
2021/11/07 00:04:07;;;;;;;8.65;6.70;;;;;;;3.97;72.31;100483.84;1757399;80;21937;-59
2021/11/07 00:06:28;;;;;;;13.25;6.92;;;;;;;3.93;72.38;100487.33;1763031;80;22199;-61
2021/11/07 00:11:24;;;;;;;9.43;6.45;;;;;;;3.84;72.79;100487.34;1766039;80;21530;-61
2021/11/07 00:13:50;;;;;;;10.93;7.55;;;;;;;3.84;73.10;100486.93;1757521;80;21556;-60
2021/11/07 00:16:34;;;;;;;13.05;6.85;;;;;;;3.96;72.70;100481.27;1763704;80;21005;-60
2021/11/07 00:19:08;;;;;;;8.08;6.80;;;;;;;3.95;72.55;100482.13;1760178;80;22117;-59
2021/11/07 00:21:44;;;;;;;11.22;7.78;;;;;;;3.93;72.60;100485.16;1764025;80;21522;-60
2021/11/07 00:24:10;;;;;;;9.40;6.95;;;;;;;3.87;72.88;100476.94;1752246;80;21571;-61
2021/11/07 00:26:50;;;;;;;16.82;6.78;;;;;;;3.83;72.78;100474.77;1759819;80;21569;-59
2021/11/07 00:29:16;;;;;;;11.33;7.00;;;;;;;3.83;73.12;100473.92;1756637;80;20970;-60
2021/11/07 00:31:53;;;;;;;7.78;6.35;;;;;;;3.89;73.22;100477.80;1763993;80;22103;-59
2021/11/07 00:36:56;;;;;;;11.83;7.12;;;;;;;3.90;72.71;100456.12;1752870;80;21570;-58
2021/11/07 00:39:31;;;;;;;12.37;7.22;;;;;;;3.81;72.91;100454.84;1756196;80;21681;-59
2021/11/07 00:41:59;;;;;;;11.63;7.22;;;;;;;3.79;72.94;100466.99;1752145;80;21006;-62
2021/11/07 00:44:31;;;;;;;10.70;7.85;;;;;;;3.68;73.23;100463.10;1758381;80;21866;-59
2021/11/07 00:46:56;;;;;;;10.82;7.15;;;;;;;3.72;73.61;100460.06;1746446;80;21541;-60
2021/11/07 00:49:40;;;;;;;11.28;7.00;;;;;;;3.83;73.13;100456.56;1752821;80;21554;-60
2021/11/07 00:52:16;;;;;;;9.35;7.40;;;;;;;3.75;73.23;100454.42;1750954;80;21497;-59
2021/11/07 00:54:46;;;;;;;8.10;6.65;;;;;;;3.70;73.53;100453.56;1759990;80;21518;-61
2021/11/07 00:57:28;;;;;;;13.35;6.95;;;;;;;3.67;73.66;100448.35;1769400;80;21419;-58
2021/11/07 01:00:04;;;;;;;10.63;6.87;;;;;;;3.61;73.77;100441.87;1748430;80;21488;-58
2021/11/07 01:02:37;;;;;;;7.62;6.62;;;;;;;3.68;73.93;100433.19;1742707;80;21655;-58
2021/11/07 01:05:16;;;;;;;14.23;6.97;;;;;;;3.75;73.58;100432.73;1752211;80;21496;-60
2021/11/07 01:07:43;;;;;;;11.50;7.62;;;;;;;3.63;73.74;100429.28;1747104;80;21564;-60
2021/11/07 01:10:10;;;;;;;9.20;6.33;;;;;;;3.59;73.91;100429.30;1758084;80;21828;-59
2021/11/07 01:12:38;;;;;;;8.35;6.80;;;;;;;3.58;74.24;100432.76;1745651;80;21484;-59
2021/11/07 01:15:07;;;;;;;9.75;7.33;;;;;;;3.59;74.45;100430.61;1758612;80;21617;-59
2021/11/07 01:17:35;;;;;;;11.57;7.25;;;;;;;3.66;74.02;100421.93;1748932;80;21564;-58
2021/11/07 01:20:03;;;;;;;8.98;7.40;;;;;;;3.62;73.89;100425.41;1762330;80;21554;-59
2021/11/07 01:22:42;;;;;;;9.23;6.97;;;;;;;3.56;74.26;100428.00;1752758;80;21771;-59
2021/11/07 01:25:00;;;;;;;8.95;7.22;;;;;;;3.48;74.58;100424.11;1746955;80;21575;-59
2021/11/07 01:27:39;;;;;;;8.70;6.80;;;;;;;3.53;74.79;100424.13;1751867;80;21534;-59
2021/11/07 01:29:57;;;;;;;8.78;6.80;;;;;;;3.55;74.68;100418.04;1757617;80;21013;-59
2021/11/07 01:32:24;;;;;;;11.10;7.37;;;;;;;3.59;74.31;100417.16;1757456;80;21519;-59
2021/11/07 01:35:15;;;;;;;7.80;6.20;;;;;;;3.51;74.49;100410.67;1749535;80;21664;-59
2021/11/07 01:37:38;;;;;;;12.75;7.30;;;;;;;3.44;74.92;100399.84;1756895;80;21530;-60
2021/11/07 01:40:11;;;;;;;10.50;6.60;;;;;;;3.42;75.14;100402.88;1756102;80;21041;-60
2021/11/07 01:42:40;;;;;;;10.25;7.00;;;;;;;3.58;74.77;100407.64;1757510;80;21443;-59
2021/11/07 01:45:22;;;;;;;9.35;7.20;;;;;;;3.57;74.32;100410.24;1758343;80;20934;-59
2021/11/07 01:47:48;;;;;;;11.57;7.10;;;;;;;3.49;74.45;100412.86;1743698;80;21816;-59
2021/11/07 01:50:10;;;;;;;9.20;6.90;;;;;;;3.45;74.72;100412.44;1750479;80;21429;-59
2021/11/07 01:52:40;;;;;;;10.30;6.75;;;;;;;3.37;75.07;100411.56;1750406;80;21767;-59
2021/11/07 01:55:06;;;;;;;8.88;6.87;;;;;;;3.43;75.38;100408.53;1744679;80;21482;-60
2021/11/07 01:57:34;;;;;;;;;;;;;;;3.51;75.01;100410.67;1760990;80;21534;-60
2021/11/07 02:00:09;;;;;;;12.13;7.25;;;;;;;3.53;75.02;100403.32;1757838;80;22128;-59
2021/11/07 02:02:37;;;;;;;9.95;6.40;;;;;;;3.48;74.96;100405.50;1716150;80;21526;-59
2021/11/07 02:05:05;;;;;;;11.80;7.75;;;;;;;3.48;75.10;100400.71;1746493;80;21543;-59
2021/11/07 02:07:33;;;;;;;8.98;6.20;;;;;;;3.46;75.52;100399.84;1755655;80;21153;-60
2021/11/07 02:10:00;;;;;;;10.43;7.10;;;;;;;3.57;75.36;100398.54;1688481;83;21520;-59
2021/11/07 02:12:28;;;;;;;8.25;6.78;;;;;;;3.60;74.88;100392.02;1760343;80;21569;-60
2021/11/07 02:14:55;;;;;;;12.85;7.30;;;;;;;3.57;74.82;100394.20;1741847;80;21499;-60
2021/11/07 02:17:21;;;;;;;9.08;7.33;;;;;;;3.54;74.97;100386.83;1761990;80;21491;-60
2021/11/07 02:19:49;;;;;;;9.80;6.70;;;;;;;3.45;75.09;100378.20;1752857;80;21562;-60
2021/11/07 02:22:15;;;;;;;7.58;5.95;;;;;;;3.55;75.29;100385.98;1758282;80;21574;-59
2021/11/07 02:24:42;;;;;;;9.65;7.25;;;;;;;3.60;74.98;100386.40;1754228;80;22125;-59
2021/11/07 02:27:09;;;;;;;8.63;6.00;;;;;;;3.62;74.48;100379.45;1768504;80;21889;-59
2021/11/07 02:29:37;;;;;;;10.40;7.15;;;;;;;3.54;74.75;100388.98;1749101;80;21054;-59
2021/11/07 02:32:05;;;;;;;13.00;7.65;;;;;;;3.47;74.89;100383.39;1760509;80;28583;-59
2021/11/07 02:34:34;;;;;;;7.72;6.85;;;;;;;3.47;74.95;100382.09;1754723;80;21649;-59
2021/11/07 02:37:01;;;;;;;7.45;6.45;;;;;;;3.46;75.09;100381.20;1754608;80;21765;-59
2021/11/07 02:39:28;;;;;;;8.65;6.55;;;;;;;3.57;74.99;100378.59;1747360;80;20972;-59
2021/11/07 02:41:54;;;;;;;8.28;6.67;;;;;;;3.58;74.76;100382.05;1759375;80;20973;-60
2021/11/07 02:44:37;;;;;;;9.45;6.67;;;;;;;3.52;74.52;100386.83;1754376;80;21519;-59
2021/11/07 02:47:06;;;;;;;8.28;7.10;;;;;;;3.48;74.71;100389.90;1748152;80;21163;-58
2021/11/07 02:49:33;;;;;;;9.10;6.80;;;;;;;3.39;74.96;100391.62;1753378;80;21732;-58
2021/11/07 02:52:00;;;;;;;7.75;6.60;;;;;;;3.36;75.50;100389.05;1752683;80;21570;-58
2021/11/07 02:54:27;;;;;;;8.40;7.47;;;;;;;3.47;75.33;100386.86;1750904;80;21518;-58
2021/11/07 02:56:56;;;;;;;12.28;7.10;;;;;;;3.48;74.81;100387.30;1762856;80;21053;-58
2021/11/07 02:59:26;;;;;;;7.33;6.47;;;;;;;3.39;75.03;100389.02;1747015;80;21471;-59
2021/11/07 03:01:55;;;;;;;8.68;7.05;;;;;;;3.31;75.24;100387.33;1751714;80;22126;-58
2021/11/07 03:04:23;;;;;;;9.78;6.72;;;;;;;3.25;75.45;100390.35;1751687;80;20951;-58
2021/11/07 03:06:51;;;;;;;10.03;7.58;;;;;;;3.31;75.71;100387.33;1746656;80;21523;-58
2021/11/07 03:09:25;;;;;;;10.90;6.75;;;;;;;3.36;75.52;100391.65;1760612;80;21629;-59
2021/11/07 03:11:53;;;;;;;9.93;7.85;;;;;;;3.34;75.22;100391.64;1753080;80;21537;-58
2021/11/07 03:14:26;;;;;;;8.28;6.90;;;;;;;3.26;75.21;100390.36;1753091;80;21808;-58
2021/11/07 03:16:54;;;;;;;8.33;7.20;;;;;;;3.16;75.23;100399.01;1754973;80;21619;-59
2021/11/07 03:19:23;;;;;;;7.90;6.55;;;;;;;3.09;75.32;100394.27;1712432;82;21596;-59
2021/11/07 03:21:58;;;;;;;11.43;7.20;;;;;;;3.05;75.34;100392.95;1694137;83;21439;-58
2021/11/07 03:24:25;;;;;;;12.13;7.42;;;;;;;2.99;75.48;100400.31;1686996;83;21598;-58
2021/11/07 03:26:52;;;;;;;8.30;6.50;;;;;;;3.10;75.41;100392.08;1757152;80;21811;-59
2021/11/07 03:29:20;;;;;;;10.83;6.83;;;;;;;3.06;75.23;100390.80;1750269;80;21582;-58
2021/11/07 03:32:02;;;;;;;9.60;7.03;;;;;;;2.99;75.46;100393.81;1761762;80;21511;-58
2021/11/07 03:34:28;;;;;;;11.48;7.42;;;;;;;2.85;75.76;100389.06;1765380;80;21499;-59
2021/11/07 03:36:55;;;;;;;11.73;7.15;;;;;;;2.80;75.99;100389.48;1753599;80;21569;-59
2021/11/07 03:39:23;;;;;;;9.48;7.67;;;;;;;2.82;76.44;100386.45;1754149;80;21690;-60
2021/11/07 03:41:49;;;;;;;11.68;8.25;;;;;;;2.93;76.40;100387.33;1758784;80;21507;-58
2021/11/07 03:44:18;;;;;;;10.23;8.43;;;;;;;2.89;76.37;100376.06;1762346;80;21610;-59
2021/11/07 03:46:47;;;;;;;10.10;8.43;;;;;;;2.81;76.62;100379.11;1756344;80;21593;-58
2021/11/07 03:49:13;;;;;;;11.38;9.03;;;;;;;2.73;76.77;100380.40;1748918;80;21641;-59
2021/11/07 03:51:40;;;;;;;11.65;8.63;;;;;;;2.68;76.91;100379.52;1760098;80;21746;-58
2021/11/07 03:54:08;;;;;;;10.40;7.95;;;;;;;2.75;77.17;100373.92;1746966;80;21515;-58
2021/11/07 03:56:34;;;;;;;;;;;;;;;2.84;76.86;100375.63;1759881;80;21439;-58
2021/11/07 03:59:01;;;;;;;11.85;8.93;;;;;;;2.80;76.83;100372.61;1746287;80;20162;-58
2021/11/07 04:01:29;;;;;;;11.65;9.10;;;;;;;2.70;76.92;100371.30;1730263;80;21041;-58
2021/11/07 04:03:55;;;;;;;11.57;7.97;;;;;;;2.64;77.05;100375.20;1708881;83;21527;-59
2021/11/07 04:06:22;;;;;;;13.60;8.85;;;;;;;2.58;77.18;100371.70;1714387;83;21570;-59
2021/11/07 04:08:49;;;;;;;9.95;8.05;;;;;;;2.63;77.33;100373.45;1705341;83;21490;-58
2021/11/07 04:11:16;;;;;;;10.13;9.00;;;;;;;2.68;77.13;100378.66;1704899;83;21477;-58
2021/11/07 04:13:43;;;;;;;11.60;8.75;;;;;;;2.62;77.11;100366.95;1704865;83;21613;-58
2021/11/07 04:16:11;;;;;;;13.10;8.63;;;;;;;2.52;77.35;100364.38;1703946;83;22147;-58
2021/11/07 04:18:39;;;;;;;11.30;7.92;;;;;;;2.44;77.65;100362.17;1713070;82;21498;-58
2021/11/07 04:21:06;;;;;;;11.33;8.35;;;;;;;2.46;77.97;100365.63;1718257;81;21551;-60
2021/11/07 04:23:33;;;;;;;10.72;8.68;;;;;;;2.56;77.71;100357.42;1707554;81;21618;-60
2021/11/07 04:26:00;;;;;;;10.60;9.10;;;;;;;2.57;77.36;100358.31;1708367;83;21037;-58
2021/11/07 04:28:26;;;;;;;13.55;9.10;;;;;;;2.47;77.61;100355.70;1714237;80;21518;-59
2021/11/07 04:30:54;;;;;;;12.90;10.28;;;;;;;2.41;77.81;100350.91;1710419;83;21546;-59
2021/11/07 04:33:22;;;;;;;13.17;9.07;;;;;;;2.43;78.14;100345.29;1708024;83;21464;-59
2021/11/07 04:35:50;;;;;;;16.30;9.68;;;;;;;2.51;77.96;100351.38;1709059;81;21339;-60
2021/11/07 04:38:17;;;;;;;10.80;8.50;;;;;;;2.49;77.67;100340.98;1706228;83;21534;-59
2021/11/07 04:40:43;;;;;;;11.75;9.48;;;;;;;2.45;77.74;100350.05;1700659;83;21846;-59
2021/11/07 04:43:11;;;;;;;15.95;9.33;;;;;;;2.39;77.85;100363.02;1701577;83;21490;-58
2021/11/07 04:45:37;;;;;;;12.82;9.35;;;;;;;2.36;77.91;100364.34;1708698;83;21517;-59
2021/11/07 04:48:04;;;;;;;12.37;9.15;;;;;;;2.42;78.15;100365.64;1697232;80;21517;-58
2021/11/07 04:50:36;;;;;;;15.08;10.38;;;;;;;2.45;77.84;100365.22;1698848;83;21447;-61
2021/11/07 04:53:04;;;;;;;13.85;9.88;;;;;;;2.39;77.89;100366.48;1712379;80;21696;-57
2021/11/07 04:55:28;;;;;;;13.75;9.60;;;;;;;2.26;78.19;100371.20;1705568;82;21574;-55
2021/11/07 04:57:55;;;;;;;17.30;9.35;;;;;;;2.23;78.47;100369.48;1708881;80;21509;-55
2021/11/07 05:00:22;;;;;;;12.45;8.90;;;;;;;2.30;78.70;100375.13;1702231;83;21422;-55
2021/11/07 05:02:51;;;;;;;15.03;10.03;;;;;;;2.32;78.35;100367.36;1731059;81;21521;-56
2021/11/07 05:05:18;;;;;;;12.80;10.60;;;;;;;2.28;78.27;100372.08;1732677;81;22018;-55
2021/11/07 05:07:45;;;;;;;17.37;9.07;;;;;;;2.23;78.29;100380.30;1727023;81;21529;-57
2021/11/07 05:10:12;;;;;;;9.88;8.58;;;;;;;2.16;78.50;100385.03;1731171;81;21508;-56
2021/11/07 05:12:39;;;;;;;15.65;9.30;;;;;;;2.19;78.83;100379.42;1720546;82;21486;-55
2021/11/07 05:15:07;;;;;;;14.23;9.88;;;;;;;2.24;78.58;100384.20;1731194;81;21648;-57
2021/11/07 05:17:34;;;;;;;15.70;9.98;;;;;;;2.24;78.49;100386.80;1722602;81;21799;-55
2021/11/07 05:20:01;;;;;;;12.25;9.63;;;;;;;2.14;78.67;100388.91;1728707;81;21474;-55
2021/11/07 05:22:28;;;;;;;14.58;8.73;;;;;;;2.08;79.13;100382.41;1738837;81;22123;-54
2021/11/07 05:24:55;;;;;;;10.55;9.03;;;;;;;2.12;79.38;100386.74;1722532;82;21559;-55
2021/11/07 05:27:21;;;;;;;14.05;10.18;;;;;;;2.28;78.75;100389.83;1730264;82;21523;-55
2021/11/07 05:29:48;;;;;;;15.65;10.20;;;;;;;2.23;78.77;100389.38;1735994;82;21532;-56
2021/11/07 05:32:15;;;;;;;12.70;10.05;;;;;;;2.17;78.90;100386.34;1726308;82;27446;-55
2021/11/07 05:34:42;;;;;;;19.80;10.35;;;;;;;2.15;78.95;100386.77;1725148;82;21467;-54
2021/11/07 05:37:09;;;;;;;12.97;9.60;;;;;;;2.18;79.34;100378.97;1734623;81;21053;-55
2021/11/07 05:39:35;;;;;;;16.73;9.50;;;;;;;2.33;78.89;100371.66;1735241;81;21398;-55
2021/11/07 05:42:03;;;;;;;12.78;9.68;;;;;;;2.33;78.52;100379.01;1731474;81;21828;-55
2021/11/07 05:44:29;;;;;;;15.28;11.05;;;;;;;2.31;78.70;100374.69;1737781;81;28876;-55
2021/11/07 05:46:56;;;;;;;20.45;10.50;;;;;;;2.30;78.74;100372.53;1734153;82;21072;-55
2021/11/07 05:49:23;;;;;;;20.33;11.50;;;;;;;2.34;78.91;100367.78;1737903;82;21460;-54
2021/11/07 05:51:50;;;;;;;15.32;9.85;;;;;;;2.47;78.79;100362.63;1738018;81;20982;-55
2021/11/07 05:54:17;;;;;;;21.80;10.70;;;;;;;2.58;78.44;100355.72;1737864;81;21978;-55
2021/11/07 05:56:44;;;;;;;15.67;10.13;;;;;;;2.61;78.10;100360.04;1721040;82;21623;-55
2021/11/07 05:59:11;;;;;;;17.05;10.45;;;;;;;2.59;78.05;100376.91;1709596;82;21494;-55
2021/11/07 06:01:37;;;;;;;22.17;9.65;;;;;;;2.62;78.08;100389.91;1737347;80;21567;-55
2021/11/07 06:04:05;;;;;;;20.52;10.50;;;;;;;2.66;78.21;100384.29;1764550;80;21459;-55
2021/11/07 06:06:32;;;;;;;12.45;9.95;;;;;;;2.83;77.68;100384.30;1690371;84;21809;-56
2021/11/07 06:09:00;;;;;;;13.48;10.05;;;;;;;2.82;77.57;100380.82;1734161;80;21530;-56
2021/11/07 06:11:27;;;;;;;;;;;;;;;2.86;77.33;100383.88;1735859;81;21526;-57
2021/11/07 06:13:53;;;;;;;22.27;10.75;;;;;;;2.84;77.34;100381.69;1735449;80;20435;-56
2021/11/07 06:16:20;;;;;;;17.65;10.23;;;;;;;2.89;77.50;100376.51;1734013;82;21030;-55
2021/11/07 06:18:47;;;;;;;15.90;10.38;;;;;;;3.05;77.05;100378.25;1733938;82;21788;-53
2021/11/07 06:21:14;;;;;;;19.57;10.68;;;;;;;3.19;76.44;100373.47;1733895;82;21444;-54
2021/11/07 06:23:41;;;;;;;15.60;10.50;;;;;;;3.17;76.46;100376.51;1734341;80;21483;-54
2021/11/07 06:26:08;;;;;;;18.10;10.78;;;;;;;3.18;76.58;100369.13;1734126;82;21534;-54
2021/11/07 06:28:34;;;;;;;17.60;10.60;;;;;;;3.23;76.46;100369.55;1734717;80;21420;-55
2021/11/07 06:31:06;;;;;;;20.15;10.72;;;;;;;3.35;76.32;100364.77;1763672;80;21707;-53
2021/11/07 06:33:33;;;;;;;18.87;10.70;;;;;;;3.54;75.76;100368.63;1698413;84;21446;-54
2021/11/07 06:35:59;;;;;;;27.00;12.37;;;;;;;3.59;75.62;100375.99;1739897;80;21440;-54
2021/11/07 06:38:27;;;;;;;18.62;10.82;;;;;;;3.63;75.20;100382.91;1743166;80;21054;-54
2021/11/07 06:40:54;;;;;;;18.42;10.90;;;;;;;3.58;75.43;100385.54;1764708;80;21451;-54
2021/11/07 06:43:21;;;;;;;13.60;10.00;;;;;;;3.77;75.46;100388.06;1750004;80;22027;-55
2021/11/07 06:45:48;;;;;;;22.82;10.78;;;;;;;3.90;75.00;100388.03;1734182;82;21112;-56
2021/11/07 06:48:14;;;;;;;16.30;10.95;;;;;;;4.01;74.28;100388.42;1735687;80;21449;-55
2021/11/07 06:50:41;;;;;;;21.77;12.28;;;;;;;4.03;74.13;100386.26;1762517;80;21448;-55
2021/11/07 06:53:08;;;;;;;23.60;11.28;;;;;;;4.06;74.16;100378.42;1764493;80;21483;-55
2021/11/07 06:55:35;;;;;;;22.82;11.93;;;;;;;4.13;74.04;100374.51;1763361;80;21400;-55
2021/11/07 06:58:02;;;;;;;27.25;11.95;;;;;;;4.40;73.16;100370.88;1764407;80;21439;-55
2021/11/07 07:00:29;;;;;;;22.87;11.65;;;;;;;4.44;73.00;100351.75;1762283;80;21065;-56
2021/11/07 07:02:56;;;;;;;20.55;11.57;;;;;;;4.41;72.95;100347.44;1764534;80;21494;-55
2021/11/07 07:05:23;;;;;;;19.57;11.28;;;;;;;4.47;72.70;100340.88;1764677;80;21006;-55
2021/11/07 07:07:53;;;;;;;24.10;11.07;;;;;;;4.50;72.68;100338.68;1764734;80;22029;-55
2021/11/07 07:10:32;;;;;;;19.20;9.78;;;;;;;4.65;73.06;100341.20;1742809;80;21672;-55
2021/11/07 07:13:05;;;;;;;20.32;10.88;;;;;;;4.90;72.29;100335.80;1733494;82;21424;-55
2021/11/07 07:15:39;;;;;;;17.42;10.00;;;;;;;5.09;70.91;100337.80;1733662;81;21429;-55
2021/11/07 07:26:17;;;;;;;14.78;9.83;;;;;;;5.27;70.71;100321.09;1736394;80;21549;-55
2021/11/07 07:33:30;;;;;;;22.65;10.85;;;;;;;5.72;68.96;100316.69;1762588;80;22060;-55
2021/11/07 07:35:56;;;;;;;17.87;10.28;;;;;;;5.80;68.81;100316.14;1736191;80;21539;-56
2021/11/07 07:38:24;;;;;;;18.48;10.82;;;;;;;5.83;68.56;100311.75;1744700;80;21558;-58
2021/11/07 07:40:52;;;;;;;17.80;11.35;;;;;;;5.89;68.63;100303.43;1733896;80;21532;-56
2021/11/07 07:43:19;;;;;;;22.58;11.38;;;;;;;5.97;68.05;100300.30;1752877;80;21546;-56
2021/11/07 07:45:46;;;;;;;12.65;10.00;;;;;;;6.00;68.05;100302.43;1745035;80;22126;-55
2021/11/07 07:48:12;;;;;;;16.02;9.25;;;;;;;6.12;67.98;100300.12;1764497;80;21423;-56
2021/11/07 07:50:41;;;;;;;11.77;9.33;;;;;;;6.33;67.48;100300.24;1764765;80;21517;-55
2021/11/07 07:53:08;;;;;;;14.80;9.08;;;;;;;6.42;66.81;100302.72;1753553;80;21530;-55
2021/11/07 07:55:36;;;;;;;11.83;8.78;;;;;;;6.52;66.22;100309.11;1733965;82;21427;-55
2021/11/07 07:58:03;;;;;;;12.33;8.95;;;;;;;6.56;66.22;100314.25;1739394;80;21774;-56
2021/11/07 08:00:29;;;;;;;12.75;8.95;;;;;;;6.67;65.87;100315.39;1743455;80;20974;-54
2021/11/07 08:02:56;;;;;;;12.13;8.60;;;;;;;6.69;65.66;100314.07;1754698;80;21081;-55
2021/11/07 08:05:23;;;;;;;14.55;9.85;;;;;;;6.77;65.70;100316.95;1764327;80;20979;-55
2021/11/07 08:07:51;;;;;;;15.70;9.90;;;;;;;6.83;65.57;100304.23;1763643;80;20962;-55
2021/11/07 08:10:18;;;;;;;16.00;9.05;;;;;;;6.96;65.07;100304.44;1740273;80;21865;-54
2021/11/07 08:12:45;;;;;;;15.13;9.55;;;;;;;7.03;65.09;100296.05;1739412;80;20962;-55
2021/11/07 08:15:14;;;;;;;11.45;8.48;;;;;;;7.10;65.03;100287.63;1764420;80;21475;-54
2021/11/07 08:17:41;;;;;;;12.35;9.30;;;;;;;7.25;65.27;100286.04;1764783;80;21451;-55
2021/11/07 08:20:10;;;;;;;13.13;9.25;;;;;;;7.51;64.18;100282.92;1753610;80;21488;-54
2021/11/07 08:22:37;;;;;;;13.68;9.93;;;;;;;7.65;63.87;100272.19;1732301;80;21750;-54
2021/11/07 08:25:11;;;;;;;11.30;9.10;;;;;;;7.75;63.34;100268.47;1737729;80;20954;-55
2021/11/07 08:27:35;;;;;;;17.25;8.95;;;;;;;7.79;63.29;100268.81;1741268;80;21606;-55
2021/11/07 08:30:03;;;;;;;16.62;10.78;;;;;;;7.85;62.92;100261.73;1737893;80;21444;-54
2021/11/07 08:32:30;;;;;;;13.22;9.80;;;;;;;7.91;62.87;100260.28;1753962;80;21585;-55
2021/11/07 08:34:56;;;;;;;14.95;10.93;;;;;;;8.02;62.77;100252.19;1742796;80;21945;-54
2021/11/07 08:37:31;;;;;;;18.25;10.95;;;;;;;8.08;62.40;100246.38;1746682;80;21547;-54
2021/11/07 08:39:55;;;;;;;15.00;10.85;;;;;;;8.09;62.03;100252.47;1744364;80;21448;-54
2021/11/07 08:42:30;;;;;;;13.15;10.72;;;;;;;8.01;62.19;100257.03;1752001;80;21478;-55
2021/11/07 09:06:46;;;;;;;11.53;9.25;;;;;;;8.49;61.08;100231.44;1705247;83;21086;-55
2021/11/07 09:09:11;;;;;;;11.15;9.13;;;;;;;8.58;61.31;100217.25;1689336;84;21495;-54
2021/11/07 09:11:38;;;;;;;13.55;9.88;;;;;;;8.73;61.11;100212.07;1702773;82;20951;-55
2021/11/07 09:14:05;;;;;;;11.75;9.63;;;;;;;8.78;60.52;100204.95;1682875;84;21717;-55
2021/11/07 09:16:31;;;;;;;13.30;10.28;;;;;;;8.86;60.86;100200.35;1696230;82;21095;-55
2021/11/07 09:19:00;;;;;;;15.40;9.73;;;;;;;8.96;60.36;100208.83;1712044;83;20999;-55
2021/11/07 09:21:33;;;;;;;12.78;9.78;;;;;;;9.05;60.12;100202.02;1711181;82;21855;-55
2021/11/07 09:23:59;;;;;;;12.45;9.88;;;;;;;9.18;59.71;100205.17;1690060;82;21479;-55
2021/11/07 09:26:39;;;;;;;13.72;11.08;;;;;;;9.32;59.29;100207.39;1694537;83;21411;-55
2021/11/07 09:36:34;;;;;;;11.22;9.48;;;;;;;9.93;57.93;100191.58;1722800;82;21077;-54
2021/11/07 09:44:14;;;;;;;14.63;10.48;;;;;;;10.28;56.75;100154.09;1723601;82;21408;-55
2021/11/07 09:46:50;;;;;;;11.83;10.25;;;;;;;10.84;55.92;100139.47;1695751;82;21460;-56
2021/11/07 09:49:22;;;;;;;10.88;9.08;;;;;;;11.41;53.73;100136.50;1713715;82;21408;-56
2021/11/07 09:52:02;;;;;;;13.13;9.48;;;;;;;11.78;52.64;100129.34;1709850;83;21638;-56
2021/11/07 09:54:25;;;;;;;10.70;9.53;;;;;;;12.25;52.44;100129.20;1682545;83;21439;-58
2021/11/07 09:56:54;;;;;;;12.13;9.45;;;;;;;12.86;51.22;100123.50;1695332;83;21466;-55
2021/11/07 09:59:21;;;;;;;11.05;9.20;;;;;;;13.34;50.03;100115.63;1690531;83;21665;-55
2021/11/07 10:01:51;;;;;;;9.10;8.03;;;;;;;13.52;47.81;100107.77;1696729;83;21559;-55
2021/11/07 10:04:18;;;;;;;11.10;9.75;;;;;;;13.45;46.87;100094.01;1711056;82;21998;-55
2021/11/07 10:06:48;;;;;;;11.00;8.18;;;;;;;13.30;49.58;100103.91;1716082;82;21156;-55
2021/11/07 10:09:32;;;;;;;9.88;8.73;;;;;;;13.44;48.54;100101.05;1703992;83;21416;-56
2021/11/07 10:12:19;;;;;;;11.53;8.13;;;;;;;13.53;46.73;100104.20;1711532;82;21026;-56
2021/11/07 10:14:54;;;;;;;9.63;8.73;;;;;;;13.60;47.04;100100.34;1718126;82;21526;-56
2021/11/07 10:17:25;;;;;;;11.78;8.63;;;;;;;13.61;46.46;100096.76;1688180;83;21891;-56
2021/11/07 10:20:07;;;;;;;11.43;9.20;;;;;;;13.45;46.99;100091.37;1688428;84;21472;-56
2021/11/07 10:22:33;;;;;;;9.75;8.80;;;;;;;13.53;46.73;100098.45;1698326;83;21622;-55
2021/11/07 10:25:00;;;;;;;9.60;8.60;;;;;;;13.77;46.20;100094.25;1690198;83;21625;-56
2021/11/07 10:27:26;;;;;;;11.48;8.55;;;;;;;14.04;45.57;100093.33;1691884;83;21447;-56
2021/11/07 10:30:19;;;;;;;10.08;8.65;;;;;;;14.11;44.60;100089.45;1675300;83;22111;-56
2021/11/07 10:33:11;;;;;;;11.28;9.15;;;;;;;13.96;44.84;100088.43;1716735;83;21603;-54
2021/11/07 10:38:44;;;;;;;12.43;9.85;;;;;;;14.35;44.22;100090.45;1695331;83;21614;-55
2021/11/07 10:41:12;;;;;;;10.08;9.08;;;;;;;14.62;44.35;100071.02;1707342;83;21442;-55
2021/11/07 10:46:55;;;;;;;9.05;8.23;;;;;;;14.91;43.24;100072.56;1711241;82;21489;-55
2021/11/07 10:54:24;;;;;;;10.20;9.08;;;;;;;15.69;41.29;100051.00;1693829;83;21446;-56
2021/11/07 10:57:18;;;;;;;9.13;8.13;;;;;;;16.17;41.27;100034.13;1714332;82;22408;-57
2021/11/07 11:00:13;;;;;;;10.58;9.43;;;;;;;16.44;40.36;100027.13;1709692;82;21590;-58
2021/11/07 11:02:44;;;;;;;10.05;8.60;;;;;;;16.58;39.56;100030.28;1677618;84;21565;-56
2021/11/07 11:05:26;;;;;;;11.45;9.70;;;;;;;16.62;38.86;100028.30;1674209;85;21972;-55
2021/11/07 11:08:04;;;;;;;10.20;9.10;;;;;;;15.65;39.67;100041.52;1702342;83;21432;-56
2021/11/07 11:10:46;;;;;;;9.68;8.38;;;;;;;14.59;41.79;100034.11;1656100;83;22091;-57
2021/11/07 11:13:27;;;;;;;9.88;8.88;;;;;;;13.86;43.79;100034.30;1675622;85;21612;-57
2021/11/07 11:16:07;;;;;;;9.00;8.10;;;;;;;13.29;44.79;100032.24;1726147;82;21475;-57
2021/11/07 11:31:40;;;;;;;13.60;8.10;;;;;;;11.41;50.03;100031.19;1738571;81;21006;-55
2021/11/07 11:34:05;;;;;;;10.55;8.03;;;;;;;11.28;50.50;100019.84;1721112;82;21557;-56
2021/11/07 11:36:35;;;;;;;9.18;8.08;;;;;;;11.08;51.57;100011.88;1714857;82;21845;-56
2021/11/07 11:39:08;;;;;;;10.28;8.63;;;;;;;10.93;52.23;100004.58;1727700;82;21506;-56
2021/11/07 11:41:45;;;;;;;12.13;9.40;;;;;;;10.89;52.55;99998.11;1731740;82;21590;-55
2021/11/07 11:44:06;;;;;;;13.22;9.45;;;;;;;10.82;52.82;99994.46;1727320;81;20955;-57
2021/11/07 11:46:46;;;;;;;10.68;9.30;;;;;;;10.71;53.60;99995.70;1660286;84;21468;-55
2021/11/07 11:54:37;;;;;;;15.93;10.55;;;;;;;10.66;53.48;99981.02;1629955;87;20991;-57
2021/11/07 12:00:33;;;;;;;13.05;9.60;;;;;;;10.86;53.49;99987.69;1720171;82;21574;-57
2021/11/07 12:03:08;;;;;;;9.78;8.80;;;;;;;10.99;52.95;99976.24;1708768;82;22138;-56
2021/11/07 12:05:43;;;;;;;11.97;9.30;;;;;;;10.98;52.67;99977.17;1770242;80;21515;-56
2021/11/07 12:08:25;;;;;;;10.70;9.18;;;;;;;10.93;52.77;99975.64;1757475;80;21526;-56
2021/11/07 12:11:01;;;;;;;20.23;10.48;;;;;;;10.84;53.16;99976.38;1744234;80;21532;-56
2021/11/07 12:13:57;;;;;;;12.75;9.85;;;;;;;10.77;53.36;99971.41;1763143;80;21415;-56
2021/11/07 12:17:49;;;;;;;10.45;9.43;;;;;;;10.56;53.58;99958.62;1795208;78;22584;-54
2021/11/07 12:20:28;;;;;;;11.45;9.85;;;;;;;10.42;53.87;99966.58;1778733;80;21407;-56
2021/11/07 12:23:18;;;;;;;13.13;10.45;;;;;;;10.28;54.33;99964.86;1778209;80;21886;-55
2021/11/07 12:25:46;;;;;;;12.25;9.35;;;;;;;10.18;54.62;99964.81;1760477;80;21403;-54
2021/11/07 12:28:13;;;;;;;10.82;9.75;;;;;;;10.04;55.03;99956.09;1765208;80;21491;-55
2021/11/07 12:30:40;;;;;;;12.50;10.45;;;;;;;9.89;55.40;99943.08;1744483;80;21596;-56
2021/11/07 12:33:23;;;;;;;11.05;9.78;;;;;;;9.84;55.56;99935.80;1755245;80;21577;-56
2021/11/07 12:36:03;;;;;;;14.00;9.60;;;;;;;9.84;55.78;99935.80;1767294;80;21799;-56
2021/11/07 12:41:23;;;;;;;12.53;9.60;;;;;;;9.79;56.19;99936.41;1743738;80;21481;-55
2021/11/07 12:44:00;;;;;;;10.75;9.05;;;;;;;9.78;56.49;99934.71;1759934;80;21632;-55
2021/11/07 12:46:42;;;;;;;12.75;10.28;;;;;;;9.75;56.49;99927.78;1719637;81;21590;-55
2021/11/07 12:49:22;;;;;;;11.97;9.93;;;;;;;9.65;56.61;99923.31;1736275;81;21431;-55
2021/11/07 12:51:53;;;;;;;14.53;10.85;;;;;;;9.58;57.00;99915.70;1688179;83;21471;-56
2021/11/07 12:54:28;;;;;;;11.73;10.43;;;;;;;9.46;57.15;99913.89;1703531;83;21539;-56
2021/11/07 12:57:11;;;;;;;14.75;10.98;;;;;;;9.41;57.73;99913.64;1705894;83;21033;-56
2021/11/07 12:59:45;;;;;;;15.78;10.70;;;;;;;9.34;58.03;99913.86;1715941;83;21451;-57
2021/11/07 13:02:31;;;;;;;13.93;11.38;;;;;;;9.30;57.97;99917.94;1703103;83;21745;-56
2021/11/07 13:05:11;;;;;;;11.60;10.40;;;;;;;9.21;58.40;99907.73;1712217;83;21535;-57
2021/11/07 13:07:55;;;;;;;13.00;10.82;;;;;;;9.14;58.48;99900.08;1694571;83;21515;-59
2021/11/07 13:10:39;;;;;;;14.70;10.78;;;;;;;9.12;58.77;99902.36;1696813;83;21394;-56